Time;durP1;ratioP1;P1;durP2;ratioP2;P2;SDS_P1;SDS_P2;PMS_P1;PMS_P2;Temp;Humidity;BMP_temperature;BMP_pressure;BME280_temperature;BME280_humidity;BME280_pressure;Samples;Min_cycle;Max_cycle;Signal;HPM_P1;HPM_P2
2022/12/12 00:01:38;;;;;;;8.52;4.78;;;0.10;99.90;;;;;;4897389;29;20055;-68
2022/12/12 00:04:04;;;;;;;9.18;5.38;;;0.20;99.90;;;;;;4897645;29;20495;-69
2022/12/12 00:06:30;;;;;;;8.43;5.05;;;0.10;99.90;;;;;;4880982;29;20367;-69
2022/12/12 00:08:56;;;;;;;8.05;4.85;;;0.20;99.90;;;;;;4849718;29;20055;-69
2022/12/12 00:11:23;;;;;;;8.60;5.22;;;0.20;99.90;;;;;;4880606;29;20115;-69
2022/12/12 00:13:50;;;;;;;7.72;4.50;;;0.20;99.90;;;;;;4886877;29;20036;-69
2022/12/12 00:16:16;;;;;;;9.60;4.68;;;0.20;99.90;;;;;;4883493;29;20055;-68
2022/12/12 00:18:41;;;;;;;9.60;5.57;;;0.20;99.90;;;;;;4899133;29;20043;-68
2022/12/12 00:21:17;;;;;;;8.63;4.70;;;0.20;99.90;;;;;;4883973;29;20075;-69
2022/12/12 00:23:43;;;;;;;9.90;5.90;;;0.20;99.90;;;;;;4916341;29;20051;-68
2022/12/12 00:26:24;;;;;;;11.82;6.68;;;0.30;99.90;;;;;;4898901;29;20047;-69
2022/12/12 00:28:50;;;;;;;9.73;5.78;;;0.30;99.90;;;;;;4899256;29;20036;-68
2022/12/12 00:31:17;;;;;;;10.00;5.72;;;0.30;99.90;;;;;;4916133;29;20438;-68
2022/12/12 00:33:45;;;;;;;11.60;6.57;;;0.30;99.90;;;;;;4883438;29;20040;-68
2022/12/12 00:36:11;;;;;;;11.88;6.32;;;0.20;99.90;;;;;;4898966;29;20052;-68
2022/12/12 00:38:36;;;;;;;8.70;5.15;;;0.30;99.90;;;;;;4915961;29;20043;-68
2022/12/12 00:41:03;;;;;;;8.00;4.78;;;0.30;99.90;;;;;;4898941;29;20397;-69
2022/12/12 00:43:29;;;;;;;9.02;4.93;;;0.30;99.90;;;;;;4898378;29;20074;-68
2022/12/12 00:46:00;;;;;;;7.43;4.55;;;0.20;99.90;;;;;;4898928;29;20048;-69
2022/12/12 00:48:27;;;;;;;8.57;4.93;;;0.30;99.90;;;;;;4915792;29;20123;-70
2022/12/12 00:50:53;;;;;;;7.78;4.60;;;0.30;99.90;;;;;;4915990;29;20047;-70
2022/12/12 00:53:19;;;;;;;;;;;0.30;99.90;;;;;;4898964;29;20048;-70
2022/12/12 00:55:45;;;;;;;6.80;4.20;;;0.20;99.90;;;;;;4915662;29;19930;-70
2022/12/12 00:58:11;;;;;;;7.63;4.20;;;0.30;99.90;;;;;;4898489;29;20048;-70
2022/12/12 01:00:40;;;;;;;7.72;4.57;;;0.30;99.90;;;;;;4883162;29;20178;-70
2022/12/12 01:03:06;;;;;;;6.47;3.67;;;0.30;99.90;;;;;;4898200;29;20569;-70
2022/12/12 01:05:32;;;;;;;6.18;3.53;;;0.30;99.90;;;;;;4898263;29;20052;-69
2022/12/12 01:07:57;;;;;;;5.40;3.30;;;0.30;99.90;;;;;;4883013;29;20051;-69
2022/12/12 01:10:23;;;;;;;5.35;3.13;;;0.30;99.90;;;;;;4898410;29;20343;-69
2022/12/12 01:12:49;;;;;;;5.75;3.10;;;0.30;99.90;;;;;;4882839;29;20052;-69
2022/12/12 01:15:14;;;;;;;4.15;2.65;;;0.30;99.90;;;;;;4894965;29;20090;-69
2022/12/12 01:17:40;;;;;;;4.90;3.10;;;0.30;99.90;;;;;;4879548;29;20537;-69
2022/12/12 01:20:16;;;;;;;4.93;2.72;;;0.30;99.90;;;;;;4879509;29;20635;-69
2022/12/12 01:22:42;;;;;;;4.68;2.80;;;0.30;99.90;;;;;;4894894;29;20048;-69
2022/12/12 01:25:08;;;;;;;3.85;2.47;;;0.30;99.90;;;;;;4879223;29;20324;-69
2022/12/12 01:27:34;;;;;;;7.43;3.55;;;0.30;99.90;;;;;;4879531;29;20124;-69
2022/12/12 01:30:01;;;;;;;8.13;4.13;;;0.30;99.90;;;;;;4879088;29;20427;-69
2022/12/12 01:32:28;;;;;;;7.38;3.72;;;0.30;99.90;;;;;;4878990;29;20293;-69
2022/12/12 01:34:54;;;;;;;5.13;3.17;;;0.30;99.90;;;;;;4878980;29;20055;-69
2022/12/12 01:37:20;;;;;;;4.88;2.78;;;0.30;99.90;;;;;;4894850;29;20055;-69
2022/12/12 01:39:46;;;;;;;5.00;3.15;;;0.30;99.90;;;;;;4878936;29;20044;-68
2022/12/12 01:42:14;;;;;;;4.93;2.85;;;0.30;99.90;;;;;;4878953;29;20063;-69
2022/12/12 01:44:48;;;;;;;4.30;2.67;;;0.30;99.90;;;;;;4878957;29;20052;-68
2022/12/12 01:47:17;;;;;;;4.63;2.80;;;0.30;99.90;;;;;;4895870;29;20394;-69
2022/12/12 01:49:51;;;;;;;4.75;2.70;;;0.30;99.90;;;;;;4863380;29;20076;-69
2022/12/12 01:52:29;;;;;;;5.22;3.13;;;0.30;99.90;;;;;;4863358;29;20482;-68
2022/12/12 01:54:59;;;;;;;4.45;2.83;;;0.30;99.90;;;;;;4878455;29;20056;-68
2022/12/12 01:57:36;;;;;;;4.38;2.58;;;0.30;99.90;;;;;;4895301;29;20533;-69
2022/12/12 02:00:07;;;;;;;4.63;2.70;;;0.30;99.90;;;;;;4894109;29;20050;-69
2022/12/12 02:02:33;;;;;;;4.90;2.45;;;0.30;99.90;;;;;;4878469;29;20414;-68
2022/12/12 02:05:04;;;;;;;5.03;2.95;;;0.30;99.90;;;;;;4894126;29;20060;-69
2022/12/12 02:07:30;;;;;;;5.28;3.03;;;0.30;99.90;;;;;;4894182;29;20510;-69
2022/12/12 02:09:56;;;;;;;5.50;2.80;;;0.30;99.90;;;;;;4878410;29;20040;-68
2022/12/12 02:12:21;;;;;;;4.85;2.70;;;0.30;99.90;;;;;;4863316;29;20108;-69
2022/12/12 02:14:50;;;;;;;5.80;3.30;;;0.20;99.90;;;;;;4888963;29;20490;-69
2022/12/12 02:17:33;;;;;;;6.05;3.53;;;0.30;99.90;;;;;;4878484;29;20345;-69
2022/12/12 02:20:36;;;;;;;6.43;3.53;;;0.30;99.90;;;;;;4878336;29;20139;-68
2022/12/12 02:23:33;;;;;;;6.85;4.10;;;0.30;99.90;;;;;;4878252;29;20123;-70
2022/12/12 02:26:33;;;;;;;6.18;3.58;;;0.30;99.90;;;;;;4878258;29;20200;-69
2022/12/12 02:29:18;;;;;;;6.95;3.78;;;0.20;99.90;;;;;;4878250;29;20093;-69
2022/12/12 02:32:28;;;;;;;7.50;4.10;;;0.20;99.90;;;;;;4878336;29;20049;-69
2022/12/12 02:35:16;;;;;;;4.88;3.00;;;0.30;99.90;;;;;;4893743;29;20499;-69
2022/12/12 02:38:08;;;;;;;4.65;2.72;;;0.30;99.90;;;;;;4878319;29;20502;-69
2022/12/12 02:41:08;;;;;;;4.95;2.85;;;0.20;99.90;;;;;;4878436;29;20057;-68
2022/12/12 02:43:50;;;;;;;4.63;2.78;;;0.30;99.90;;;;;;4877772;29;20048;-69
2022/12/12 02:47:07;;;;;;;4.72;2.88;;;0.30;99.90;;;;;;4895116;29;20045;-69
2022/12/12 02:49:35;;;;;;;4.35;2.67;;;0.20;99.90;;;;;;4863313;29;20140;-69
2022/12/12 02:52:02;;;;;;;5.85;2.92;;;0.20;99.90;;;;;;4878589;29;20123;-69
2022/12/12 02:54:28;;;;;;;4.05;2.53;;;0.20;99.90;;;;;;4878402;29;20061;-69
2022/12/12 02:56:59;;;;;;;4.97;2.80;;;0.20;99.90;;;;;;4878178;29;20455;-68
2022/12/12 02:59:40;;;;;;;5.68;3.17;;;0.20;99.90;;;;;;4878103;29;20048;-69
2022/12/12 03:02:30;;;;;;;3.78;2.40;;;0.20;99.90;;;;;;4877743;29;20060;-68
2022/12/12 03:08:23;;;;;;;7.10;3.92;;;0.30;99.90;;;;;;4880167;29;20435;-69
2022/12/12 03:11:06;;;;;;;7.78;4.18;;;0.30;99.90;;;;;;4881372;29;20055;-69
2022/12/12 03:13:52;;;;;;;7.18;3.70;;;0.30;99.90;;;;;;4882184;29;20041;-69
2022/12/12 03:16:28;;;;;;;6.13;3.60;;;0.20;99.90;;;;;;4866063;29;20049;-69
2022/12/12 03:19:08;;;;;;;5.93;3.50;;;0.20;99.90;;;;;;4881453;29;20085;-69
2022/12/12 03:21:50;;;;;;;6.25;3.60;;;0.20;99.90;;;;;;4881460;29;20055;-69
2022/12/12 03:24:25;;;;;;;5.93;3.30;;;0.20;99.90;;;;;;4881282;29;20056;-69
2022/12/12 03:26:57;;;;;;;6.47;3.83;;;0.20;99.90;;;;;;4881163;29;20051;-69
2022/12/12 03:29:31;;;;;;;6.03;3.25;;;0.20;99.90;;;;;;4881295;29;20045;-69
2022/12/12 03:32:11;;;;;;;5.30;3.40;;;0.20;99.90;;;;;;4865450;29;20461;-68
2022/12/12 03:34:46;;;;;;;6.53;3.60;;;0.20;99.90;;;;;;4881227;29;20048;-69
2022/12/12 03:37:22;;;;;;;5.50;3.25;;;0.20;99.90;;;;;;4866053;29;20196;-69
2022/12/12 03:40:09;;;;;;;6.43;3.42;;;0.20;99.90;;;;;;4896534;29;20127;-69
2022/12/12 03:42:44;;;;;;;5.93;3.63;;;0.20;99.90;;;;;;4881002;29;20052;-69
2022/12/12 03:45:19;;;;;;;5.70;3.60;;;0.20;99.90;;;;;;4896955;29;20048;-68
2022/12/12 03:47:51;;;;;;;4.80;2.90;;;0.20;99.90;;;;;;4897793;29;20066;-69
2022/12/12 03:50:30;;;;;;;4.68;2.70;;;0.20;99.90;;;;;;4880908;29;20099;-69
2022/12/12 03:53:35;;;;;;;8.05;4.05;;;0.20;99.90;;;;;;4880881;29;20049;-69
2022/12/12 03:56:09;;;;;;;6.07;3.38;;;0.20;99.90;;;;;;4869487;29;20123;-69
2022/12/12 03:58:52;;;;;;;4.82;2.88;;;0.20;99.90;;;;;;4880692;29;20568;-69
2022/12/12 04:01:24;;;;;;;5.75;3.47;;;0.20;99.90;;;;;;4880671;29;20124;-69
2022/12/12 04:04:19;;;;;;;6.15;3.53;;;0.20;99.90;;;;;;4880628;29;20092;-69
2022/12/12 04:06:49;;;;;;;4.80;2.90;;;0.20;99.90;;;;;;4896548;29;20375;-69
2022/12/12 04:15:36;;;;;;;6.07;3.20;;;0.20;99.90;;;;;;4892198;29;20056;-69
2022/12/12 04:18:32;;;;;;;3.85;2.50;;;0.20;99.90;;;;;;4880123;29;20470;-69
2022/12/12 04:24:21;;;;;;;4.55;2.67;;;0.20;99.90;;;;;;4897300;29;20061;-70
2022/12/12 04:26:59;;;;;;;4.40;2.55;;;0.20;99.90;;;;;;4864848;29;20180;-70
2022/12/12 04:29:37;;;;;;;4.65;2.75;;;0.20;99.90;;;;;;4880236;29;20051;-70
2022/12/12 04:32:06;;;;;;;3.85;2.38;;;0.20;99.90;;;;;;4880050;29;20131;-70
2022/12/12 04:34:53;;;;;;;3.83;2.20;;;0.20;99.90;;;;;;4879953;29;20053;-70
2022/12/12 04:37:24;;;;;;;4.57;2.88;;;0.20;99.90;;;;;;4880014;29;20514;-70
2022/12/12 04:39:53;;;;;;;4.95;2.35;;;0.20;99.90;;;;;;4880212;29;20135;-70
2022/12/12 04:42:23;;;;;;;4.07;2.58;;;0.20;99.90;;;;;;4879875;29;20048;-70
2022/12/12 04:44:54;;;;;;;4.00;2.30;;;0.20;99.90;;;;;;4880355;29;20052;-70
2022/12/12 04:47:21;;;;;;;4.40;2.50;;;0.20;99.90;;;;;;4879916;29;20486;-70
2022/12/12 04:49:49;;;;;;;6.82;3.50;;;0.20;99.90;;;;;;4864161;29;20045;-70
2022/12/12 04:52:17;;;;;;;5.55;3.28;;;0.20;99.90;;;;;;4864615;29;20404;-70
2022/12/12 04:55:08;;;;;;;4.97;2.80;;;0.20;99.90;;;;;;4879604;29;20056;-70
2022/12/12 04:57:43;;;;;;;4.05;2.50;;;0.20;99.90;;;;;;4864441;29;20033;-70
2022/12/12 05:00:11;;;;;;;4.72;2.42;;;0.30;99.90;;;;;;4879210;29;20096;-70
2022/12/12 05:02:48;;;;;;;3.63;2.28;;;0.20;99.90;;;;;;4879306;29;20093;-70
2022/12/12 05:05:17;;;;;;;4.22;2.50;;;0.20;99.90;;;;;;4879481;29;20108;-69
2022/12/12 05:07:47;;;;;;;3.70;2.00;;;0.30;99.90;;;;;;4894844;29;20443;-70
2022/12/12 05:10:15;;;;;;;3.50;1.98;;;0.20;99.90;;;;;;4879213;29;20506;-70
2022/12/12 05:12:47;;;;;;;3.22;2.05;;;0.20;99.90;;;;;;4864071;29;20116;-70
2022/12/12 05:15:15;;;;;;;3.88;2.30;;;0.20;99.90;;;;;;4913325;29;20040;-67
2022/12/12 05:17:45;;;;;;;3.60;2.28;;;0.20;99.90;;;;;;4898369;29;20059;-69
2022/12/12 05:20:11;;;;;;;4.07;2.35;;;0.20;99.90;;;;;;4898112;29;20096;-68
2022/12/12 05:22:37;;;;;;;4.07;2.38;;;0.20;99.90;;;;;;4882570;29;20051;-68
2022/12/12 05:25:03;;;;;;;4.78;2.40;;;0.20;99.90;;;;;;4897884;29;20044;-69
2022/12/12 05:27:28;;;;;;;3.80;2.30;;;0.20;99.90;;;;;;4882679;29;20099;-69
2022/12/12 05:29:54;;;;;;;4.15;2.40;;;0.20;99.90;;;;;;4897648;29;20458;-69
2022/12/12 05:32:20;;;;;;;4.65;2.58;;;0.20;99.90;;;;;;4897848;29;20076;-68
2022/12/12 05:34:45;;;;;;;4.53;2.65;;;0.20;99.90;;;;;;4897567;29;20063;-68
2022/12/12 05:37:11;;;;;;;5.70;3.10;;;0.20;99.90;;;;;;4898045;29;20064;-68
2022/12/12 05:39:37;;;;;;;5.70;3.33;;;0.20;99.90;;;;;;4866938;29;20206;-69
2022/12/12 05:42:03;;;;;;;4.60;2.65;;;0.20;99.90;;;;;;4915129;29;20048;-68
2022/12/12 05:44:29;;;;;;;5.85;3.40;;;0.20;99.90;;;;;;4914647;29;20549;-69
2022/12/12 05:46:54;;;;;;;8.60;4.05;;;0.10;99.90;;;;;;4897679;29;20048;-68
2022/12/12 05:49:20;;;;;;;6.15;3.33;;;0.10;99.90;;;;;;4914690;29;20040;-69
2022/12/12 05:51:45;;;;;;;5.88;3.58;;;0.20;99.90;;;;;;4897651;29;20588;-68
2022/12/12 05:54:12;;;;;;;4.57;2.80;;;0.20;99.90;;;;;;4897477;29;20044;-69
2022/12/12 05:56:38;;;;;;;5.15;3.20;;;0.10;99.90;;;;;;4882230;29;20059;-69
2022/12/12 05:59:04;;;;;;;5.10;3.05;;;0.10;99.90;;;;;;4897288;29;20056;-68
2022/12/12 06:01:30;;;;;;;7.25;3.67;;;0.10;99.90;;;;;;4897267;29;20044;-69
2022/12/12 06:03:56;;;;;;;6.50;3.67;;;0.10;99.90;;;;;;4881666;29;20143;-68
2022/12/12 06:06:22;;;;;;;5.53;3.00;;;0.20;99.90;;;;;;4914402;29;20171;-68
2022/12/12 06:08:47;;;;;;;4.85;2.72;;;0.20;99.90;;;;;;4897366;29;20431;-69
2022/12/12 06:11:13;;;;;;;7.10;3.67;;;0.10;99.90;;;;;;4897568;29;20060;-69
2022/12/12 06:13:39;;;;;;;5.38;3.10;;;0.10;99.90;;;;;;4881600;29;20044;-69
2022/12/12 06:16:15;;;;;;;3.75;2.17;;;0.10;99.90;;;;;;4897602;29;20044;-68
2022/12/12 06:18:41;;;;;;;6.03;3.50;;;0.10;99.90;;;;;;4897206;29;20080;-69
2022/12/12 06:21:09;;;;;;;9.07;4.18;;;0.10;99.90;;;;;;4897127;29;20094;-68
2022/12/12 06:23:39;;;;;;;7.30;4.40;;;0.10;99.90;;;;;;4897055;29;20048;-69
2022/12/12 06:26:07;;;;;;;9.13;4.43;;;0.10;99.90;;;;;;4897475;29;20132;-69
2022/12/12 06:28:33;;;;;;;7.25;4.03;;;0.10;99.90;;;;;;4914194;29;20040;-68
2022/12/12 06:30:58;;;;;;;6.45;3.67;;;0.10;99.90;;;;;;4897003;29;20054;-69
2022/12/12 06:33:26;;;;;;;5.20;3.13;;;0.10;99.90;;;;;;4897190;29;20394;-69
2022/12/12 06:36:06;;;;;;;6.10;3.53;;;0.10;99.90;;;;;;4897296;29;20056;-69
2022/12/12 06:38:32;;;;;;;5.10;3.13;;;0.10;99.90;;;;;;4897132;29;20139;-69
2022/12/12 06:40:58;;;;;;;8.65;4.18;;;0.10;99.90;;;;;;4897201;29;20048;-69
2022/12/12 06:43:24;;;;;;;8.45;4.03;;;0.10;99.90;;;;;;4899723;29;20512;-68
2022/12/12 06:45:50;;;;;;;7.95;3.90;;;0.10;99.90;;;;;;4885043;29;20048;-69
2022/12/12 06:48:16;;;;;;;6.63;3.85;;;0.10;99.90;;;;;;4885152;29;20418;-69
2022/12/12 06:50:44;;;;;;;6.20;3.63;;;0.10;99.90;;;;;;4900570;29;20048;-69
2022/12/12 06:53:10;;;;;;;5.93;3.50;;;0.00;99.90;;;;;;4901009;29;20393;-68
2022/12/12 06:55:41;;;;;;;5.20;3.13;;;0.10;99.90;;;;;;4884704;29;20052;-69
2022/12/12 06:58:07;;;;;;;5.50;3.13;;;0.10;99.90;;;;;;4900277;29;20060;-69
2022/12/12 07:00:33;;;;;;;5.70;3.08;;;0.10;99.90;;;;;;4900459;29;20123;-69
2022/12/12 07:02:58;;;;;;;5.38;3.17;;;0.00;99.90;;;;;;4900193;29;20166;-69
2022/12/12 07:05:24;;;;;;;5.30;2.88;;;0.10;99.90;;;;;;4917625;29;20115;-69
2022/12/12 07:07:50;;;;;;;4.65;2.78;;;0.10;99.90;;;;;;4900414;29;20040;-69
2022/12/12 07:10:15;;;;;;;5.05;2.83;;;0.10;99.90;;;;;;4900566;29;20139;-69
2022/12/12 07:12:41;;;;;;;3.70;2.50;;;0.00;99.90;;;;;;4917304;29;20474;-69
2022/12/12 07:15:07;;;;;;;4.47;2.53;;;0.10;99.90;;;;;;4917192;29;20462;-68
2022/12/12 07:17:33;;;;;;;5.03;3.00;;;0.10;99.90;;;;;;4900281;29;20059;-68
2022/12/12 07:19:58;;;;;;;4.97;2.80;;;0.10;99.90;;;;;;4900504;29;20048;-68
2022/12/12 07:22:24;;;;;;;4.35;2.83;;;0.00;99.90;;;;;;4900344;29;20478;-68
2022/12/12 07:24:51;;;;;;;4.20;2.72;;;0.10;99.90;;;;;;4899765;29;20437;-69
2022/12/12 07:27:17;;;;;;;6.13;3.38;;;0.00;99.90;;;;;;4900328;29;20055;-68
2022/12/12 07:29:43;;;;;;;4.53;2.95;;;0.00;99.90;;;;;;4899938;29;20036;-69
2022/12/12 07:32:09;;;;;;;5.47;3.10;;;0.00;99.90;;;;;;4900077;29;20048;-69
2022/12/12 07:34:35;;;;;;;6.03;3.53;;;0.00;99.90;;;;;;4899717;29;20111;-69
2022/12/12 07:37:01;;;;;;;5.10;2.85;;;0.00;99.90;;;;;;4899758;29;20044;-69
2022/12/12 07:39:32;;;;;;;5.80;3.03;;;0.10;99.90;;;;;;4884394;29;20477;-69
2022/12/12 07:41:58;;;;;;;6.70;3.50;;;0.00;99.90;;;;;;4916635;29;20059;-68
2022/12/12 07:44:24;;;;;;;6.57;3.47;;;0.10;99.90;;;;;;4899625;29;20490;-69
2022/12/12 07:46:50;;;;;;;6.97;4.10;;;0.10;99.90;;;;;;4899587;29;20043;-69
2022/12/12 07:49:16;;;;;;;6.53;3.58;;;0.00;99.90;;;;;;4916541;29;20075;-68
2022/12/12 07:51:42;;;;;;;6.60;3.63;;;0.10;99.90;;;;;;4899429;29;20080;-69
2022/12/12 07:54:07;;;;;;;6.05;3.90;;;0.10;99.90;;;;;;4897992;29;20051;-69
2022/12/12 07:56:33;;;;;;;6.65;4.03;;;0.10;99.90;;;;;;4899218;29;20080;-68
2022/12/12 07:58:59;;;;;;;7.05;3.97;;;0.10;99.90;;;;;;4899275;29;20103;-69
2022/12/12 08:01:26;;;;;;;6.15;4.15;;;0.10;99.90;;;;;;4899604;29;20048;-69
2022/12/12 08:03:53;;;;;;;6.18;4.10;;;0.10;99.90;;;;;;4898920;29;20056;-69
2022/12/12 08:06:20;;;;;;;7.25;4.45;;;0.10;99.90;;;;;;4899085;29;20056;-69
2022/12/12 08:08:48;;;;;;;7.05;4.15;;;0.10;99.90;;;;;;4899260;29;20052;-69
2022/12/12 08:11:18;;;;;;;7.15;3.95;;;0.10;99.90;;;;;;4884107;29;20048;-69
2022/12/12 08:13:44;;;;;;;6.70;4.10;;;0.10;99.90;;;;;;4883335;29;20048;-69
2022/12/12 08:16:25;;;;;;;6.55;3.78;;;0.10;99.90;;;;;;4899120;29;20123;-68
2022/12/12 08:18:56;;;;;;;8.27;4.40;;;0.10;99.90;;;;;;4883387;29;20182;-68
2022/12/12 08:21:23;;;;;;;10.05;5.22;;;0.20;99.90;;;;;;4915978;29;20047;-68
2022/12/12 08:23:49;;;;;;;8.75;5.20;;;0.20;99.90;;;;;;4898913;29;20536;-68
2022/12/12 08:26:16;;;;;;;9.27;5.32;;;0.20;99.90;;;;;;4898929;29;20075;-69
2022/12/12 08:28:48;;;;;;;10.15;5.50;;;0.20;99.90;;;;;;4898777;29;20059;-69
2022/12/12 08:31:15;;;;;;;11.52;6.40;;;0.20;99.90;;;;;;4898837;29;20055;-69
2022/12/12 08:33:41;;;;;;;10.25;5.70;;;0.20;99.90;;;;;;4882927;29;20595;-69
2022/12/12 08:36:15;;;;;;;10.35;5.63;;;0.20;99.90;;;;;;4883112;29;20158;-69
2022/12/12 08:38:42;;;;;;;15.50;9.15;;;0.20;99.90;;;;;;4915705;29;20374;-69
2022/12/12 08:41:08;;;;;;;;;;;0.30;99.90;;;;;;4883704;29;20044;-69
2022/12/12 08:43:38;;;;;;;14.77;7.75;;;0.30;99.90;;;;;;4915682;29;19983;-69
2022/12/12 08:46:05;;;;;;;12.50;7.10;;;0.30;99.90;;;;;;4898807;29;20102;-68
2022/12/12 08:48:31;;;;;;;10.07;6.13;;;0.30;99.90;;;;;;4915531;29;20136;-68
2022/12/12 08:50:57;;;;;;;11.88;6.43;;;0.30;99.90;;;;;;4915348;29;20078;-68
2022/12/12 08:53:23;;;;;;;13.07;8.07;;;0.40;99.90;;;;;;4915524;29;20106;-68
2022/12/12 08:55:49;;;;;;;10.38;6.57;;;0.30;99.90;;;;;;4898099;29;20052;-69
2022/12/12 08:58:15;;;;;;;11.25;6.15;;;0.40;99.90;;;;;;4898705;29;20119;-68
2022/12/12 09:00:41;;;;;;;9.05;5.10;;;0.40;99.90;;;;;;4898481;29;20071;-68
2022/12/12 09:03:07;;;;;;;8.35;5.10;;;0.40;99.90;;;;;;4915014;29;20055;-68
2022/12/12 09:05:33;;;;;;;7.72;4.40;;;0.40;99.90;;;;;;4897844;29;20099;-69
2022/12/12 09:07:59;;;;;;;5.38;3.30;;;0.40;99.90;;;;;;4915092;29;20040;-69
2022/12/12 09:10:26;;;;;;;7.78;4.65;;;0.50;99.90;;;;;;4898202;29;20454;-68
2022/12/12 09:12:52;;;;;;;8.98;5.40;;;0.50;99.90;;;;;;4915127;29;20418;-68
2022/12/12 09:15:18;;;;;;;7.25;4.20;;;0.50;99.90;;;;;;4914942;29;20039;-69
2022/12/12 09:17:44;;;;;;;9.93;5.65;;;0.60;99.90;;;;;;4898421;29;20040;-70
2022/12/12 09:20:10;;;;;;;11.88;6.72;;;0.60;99.90;;;;;;4897758;29;20548;-69
2022/12/12 09:22:36;;;;;;;9.57;5.90;;;0.60;99.90;;;;;;4897766;29;20048;-69
2022/12/12 09:25:03;;;;;;;10.40;5.35;;;0.60;99.90;;;;;;4881971;29;20044;-69
2022/12/12 09:27:28;;;;;;;9.23;4.68;;;0.70;99.90;;;;;;4866942;29;20088;-69
2022/12/12 09:29:54;;;;;;;6.53;3.90;;;0.70;99.90;;;;;;4897727;29;20123;-69
2022/12/12 09:32:21;;;;;;;8.38;4.88;;;0.70;99.90;;;;;;4897747;29;20276;-69
2022/12/12 09:34:47;;;;;;;7.32;4.35;;;0.70;99.90;;;;;;4897606;29;20052;-69
2022/12/12 09:37:13;;;;;;;6.30;3.63;;;0.70;99.90;;;;;;4882513;29;20059;-69
2022/12/12 09:39:39;;;;;;;6.15;3.60;;;0.80;99.90;;;;;;4881921;29;20565;-69
2022/12/12 09:42:19;;;;;;;6.10;3.60;;;0.80;99.90;;;;;;4897973;29;20040;-68
2022/12/12 09:44:46;;;;;;;5.30;3.42;;;0.80;99.90;;;;;;4881802;29;20051;-69
2022/12/12 09:47:17;;;;;;;4.82;3.03;;;0.80;99.90;;;;;;4914539;29;20043;-69
2022/12/12 09:49:55;;;;;;;5.28;3.22;;;0.90;99.90;;;;;;4897687;29;20044;-69
2022/12/12 09:52:33;;;;;;;5.53;2.97;;;0.90;99.90;;;;;;4881704;29;20142;-69
2022/12/12 09:55:04;;;;;;;4.82;2.78;;;0.90;99.90;;;;;;4897214;29;20075;-69
2022/12/12 09:57:39;;;;;;;5.00;2.88;;;1.00;99.90;;;;;;4897202;29;20243;-69
2022/12/12 10:00:09;;;;;;;4.80;3.03;;;1.00;99.90;;;;;;4914202;29;20116;-69
2022/12/12 10:02:43;;;;;;;4.80;2.70;;;1.00;99.90;;;;;;4896666;29;20060;-69
2022/12/12 10:05:33;;;;;;;5.75;3.33;;;1.10;99.90;;;;;;4881485;29;20052;-69
2022/12/12 10:08:13;;;;;;;7.97;4.63;;;1.10;99.90;;;;;;4897128;29;20052;-69
2022/12/12 10:10:46;;;;;;;7.80;4.55;;;1.20;99.90;;;;;;4897463;29;20044;-69
2022/12/12 10:13:20;;;;;;;6.90;4.10;;;1.20;99.90;;;;;;4897261;29;20060;-68
2022/12/12 10:16:01;;;;;;;6.18;3.50;;;1.30;99.90;;;;;;4897049;29;20056;-69
2022/12/12 10:18:32;;;;;;;7.82;4.88;;;1.30;99.90;;;;;;4896416;29;20048;-69
2022/12/12 10:21:05;;;;;;;8.68;5.32;;;1.40;99.90;;;;;;4914295;29;20101;-69
2022/12/12 10:23:47;;;;;;;8.75;5.30;;;1.40;99.90;;;;;;4914084;29;20059;-69
2022/12/12 10:26:20;;;;;;;9.48;6.03;;;1.40;99.90;;;;;;4897048;29;20050;-69
2022/12/12 10:28:50;;;;;;;11.02;6.38;;;1.40;99.90;;;;;;4897188;29;20047;-69
2022/12/12 10:31:31;;;;;;;8.35;4.97;;;1.30;99.90;;;;;;4881370;29;20585;-69
2022/12/12 10:34:28;;;;;;;9.05;4.97;;;1.30;99.90;;;;;;4896790;29;20056;-69
2022/12/12 10:37:31;;;;;;;6.90;4.43;;;1.30;99.90;;;;;;4896996;29;20135;-68
2022/12/12 10:40:24;;;;;;;14.88;9.15;;;1.50;99.90;;;;;;4896727;29;20055;-69
2022/12/12 10:43:09;;;;;;;12.27;7.40;;;1.60;99.90;;;;;;4896938;29;20557;-69
2022/12/12 10:46:28;;;;;;;11.45;7.10;;;1.60;99.90;;;;;;4881575;29;20394;-69
2022/12/12 10:48:55;;;;;;;19.85;11.32;;;1.70;99.90;;;;;;4821726;29;20529;-69
2022/12/12 10:51:23;;;;;;;14.88;9.93;;;1.90;99.90;;;;;;4866206;29;20502;-69
2022/12/12 10:53:48;;;;;;;13.80;8.85;;;2.00;99.90;;;;;;4896860;29;20373;-69
2022/12/12 10:56:28;;;;;;;11.93;7.60;;;2.00;99.90;;;;;;4866262;29;20044;-69
2022/12/12 10:58:57;;;;;;;17.55;10.50;;;2.10;99.90;;;;;;4896673;29;20052;-69
2022/12/12 11:01:30;;;;;;;17.20;10.65;;;2.10;99.90;;;;;;4896708;29;20052;-69
2022/12/12 11:03:59;;;;;;;15.88;9.80;;;2.10;99.90;;;;;;4880967;29;20496;-69
2022/12/12 11:06:35;;;;;;;12.57;8.45;;;2.00;99.90;;;;;;4913978;29;20047;-69
2022/12/12 11:09:21;;;;;;;14.30;8.82;;;2.00;99.90;;;;;;4896602;29;20036;-69
2022/12/12 11:12:17;;;;;;;14.55;9.48;;;2.00;99.90;;;;;;4896696;29;20564;-69
2022/12/12 11:14:49;;;;;;;15.27;9.25;;;2.10;99.90;;;;;;4893534;29;20040;-69
2022/12/12 11:17:25;;;;;;;19.60;10.82;;;2.10;99.90;;;;;;4878050;29;20049;-69
2022/12/12 11:19:52;;;;;;;15.98;9.80;;;2.10;99.90;;;;;;4878066;29;20076;-69
2022/12/12 11:22:19;;;;;;;14.45;8.70;;;2.10;99.90;;;;;;4862853;29;20068;-69
2022/12/12 11:24:48;;;;;;;13.65;8.32;;;2.10;99.90;;;;;;4878115;29;20044;-69
2022/12/12 11:27:30;;;;;;;14.60;8.50;;;2.20;99.90;;;;;;4877957;29;20084;-70
2022/12/12 11:30:37;;;;;;;16.58;10.02;;;2.40;99.90;;;;;;4881373;29;20059;-69
2022/12/12 11:33:06;;;;;;;17.58;10.70;;;2.70;99.90;;;;;;4875924;29;20064;-69
2022/12/12 11:35:39;;;;;;;15.77;10.20;;;2.80;99.90;;;;;;4898037;29;20557;-69
2022/12/12 11:38:17;;;;;;;15.18;9.45;;;2.80;99.90;;;;;;4898206;29;20044;-69
2022/12/12 11:40:43;;;;;;;16.35;10.43;;;2.70;99.90;;;;;;4898324;29;20052;-69
2022/12/12 11:43:24;;;;;;;15.80;10.32;;;2.60;99.90;;;;;;4881090;29;20064;-69
2022/12/12 11:46:06;;;;;;;14.30;8.60;;;2.50;99.90;;;;;;4865604;29;20055;-69
2022/12/12 11:48:36;;;;;;;13.70;8.70;;;2.50;99.90;;;;;;4880880;29;20404;-69
2022/12/12 11:51:03;;;;;;;13.93;8.50;;;2.40;99.90;;;;;;4880948;29;20052;-69
2022/12/12 11:53:36;;;;;;;13.30;8.60;;;2.50;99.90;;;;;;4897648;29;20052;-70
2022/12/12 11:56:12;;;;;;;15.00;10.02;;;2.70;99.90;;;;;;4880684;29;20059;-70
2022/12/12 11:58:47;;;;;;;14.13;8.70;;;2.90;99.90;;;;;;4880555;29;20506;-69
2022/12/12 12:01:31;;;;;;;14.93;9.60;;;2.90;99.90;;;;;;4880825;29;20085;-69
2022/12/12 12:04:12;;;;;;;13.88;9.32;;;2.90;99.90;;;;;;4880539;29;20367;-70
2022/12/12 12:07:12;;;;;;;15.05;9.43;;;2.70;99.90;;;;;;4880627;29;20112;-69
2022/12/12 12:10:00;;;;;;;12.80;8.30;;;2.70;99.90;;;;;;4880482;29;20040;-69
2022/12/12 12:12:32;;;;;;;13.90;8.85;;;2.70;99.90;;;;;;4897551;29;20135;-69
2022/12/12 12:15:19;;;;;;;15.23;9.70;;;2.80;99.90;;;;;;4912647;29;20506;-69
2022/12/12 12:17:45;;;;;;;16.75;10.55;;;2.80;99.90;;;;;;4899316;29;20055;-69
2022/12/12 12:20:16;;;;;;;17.10;10.30;;;2.80;99.90;;;;;;4899141;29;20048;-69
2022/12/12 12:22:54;;;;;;;15.32;9.88;;;2.70;99.90;;;;;;4899207;29;20502;-69
2022/12/12 12:26:04;;;;;;;17.33;10.35;;;2.70;99.90;;;;;;4883522;29;20052;-69
2022/12/12 12:28:30;;;;;;;12.68;8.40;;;2.70;99.90;;;;;;4916151;29;20059;-69
2022/12/12 12:31:23;;;;;;;13.03;8.30;;;2.70;99.90;;;;;;4899146;29;20052;-69
2022/12/12 12:34:01;;;;;;;11.60;7.75;;;2.60;99.90;;;;;;4898709;29;20084;-69
2022/12/12 12:36:37;;;;;;;10.65;7.47;;;2.60;99.90;;;;;;4899252;29;20094;-68
2022/12/12 12:39:24;;;;;;;11.25;7.10;;;2.50;99.90;;;;;;4915684;29;20051;-68
2022/12/12 12:42:10;;;;;;;11.93;7.72;;;2.50;99.90;;;;;;4898314;29;20056;-68
2022/12/12 12:44:55;;;;;;;12.52;7.75;;;2.40;99.90;;;;;;4898619;29;20489;-68
2022/12/12 12:47:31;;;;;;;10.15;6.85;;;2.40;99.90;;;;;;4915758;29;20044;-68
2022/12/12 12:50:03;;;;;;;12.13;7.87;;;2.30;99.90;;;;;;4898610;29;20044;-68
2022/12/12 12:52:37;;;;;;;8.82;5.60;;;2.30;99.90;;;;;;4883021;29;20525;-69
2022/12/12 12:55:18;;;;;;;8.55;5.50;;;2.20;99.90;;;;;;4898313;29;20138;-69
2022/12/12 12:57:47;;;;;;;9.32;5.60;;;2.20;99.90;;;;;;4898390;29;20040;-69
2022/12/12 13:00:19;;;;;;;9.68;6.47;;;2.20;99.90;;;;;;4898601;29;20052;-69
2022/12/12 13:02:52;;;;;;;12.55;7.57;;;2.10;99.90;;;;;;4898235;29;20052;-70
2022/12/12 13:05:43;;;;;;;11.55;7.15;;;2.10;99.90;;;;;;4882920;29;20048;-70
2022/12/12 13:08:25;;;;;;;11.70;7.30;;;2.10;99.90;;;;;;4898452;29;20051;-70
2022/12/12 13:10:58;;;;;;;11.15;6.45;;;2.10;99.90;;;;;;4915349;29;20056;-70
2022/12/12 13:13:30;;;;;;;14.90;9.20;;;2.10;99.90;;;;;;4915019;29;20044;-69
2022/12/12 13:16:15;;;;;;;16.38;10.00;;;2.10;99.90;;;;;;4882449;29;20079;-69
2022/12/12 13:18:44;;;;;;;15.45;9.15;;;2.10;99.90;;;;;;4898328;29;20060;-70
2022/12/12 13:21:45;;;;;;;15.35;9.68;;;2.10;99.90;;;;;;4898102;29;20505;-69
2022/12/12 13:24:49;;;;;;;18.40;9.95;;;2.00;99.90;;;;;;4897837;29;20048;-69
2022/12/12 13:27:25;;;;;;;15.80;9.85;;;2.00;99.90;;;;;;4870040;29;20498;-69
2022/12/12 13:30:22;;;;;;;16.35;10.05;;;1.90;99.90;;;;;;4882244;29;20052;-68
2022/12/12 13:33:22;;;;;;;17.10;9.82;;;1.90;99.90;;;;;;4887837;29;20059;-69
2022/12/12 13:35:53;;;;;;;15.75;9.98;;;1.90;99.90;;;;;;4898296;29;20049;-70
2022/12/12 13:38:29;;;;;;;15.88;10.10;;;1.90;99.90;;;;;;4897901;29;20055;-69